East Islip, NY (11730)

6:24 PM EDT on April 24, 2018 (GMT -0400)
Country Village | | Change Station

Elev 20 ft 40.73 °N, 73.17 °W | Updated 12 seconds ago

Overcast
Overcast
55.4 °F
Feels Like 55.4 °F
N
4.5
Wind Variable Wind from ESE
Gusts 7.4 mph

Today
High -- | Low -- °F
--% Chance of Precip.
Yesterday
High -- | Low -- °F
Precip. -- in
Pressure 30.27 in
Visibility 10.0 miles
Clouds Mostly Cloudy 5500 ft
Mostly Cloudy 15000 ft
Overcast 25000 ft
Dew Point 41 °F
Humidity 58%
Rainfall 0.00 in
Snow Depth Not available.
6:00 AM 7:41 PM
Waxing Gibbous, 72% visible
METAR KISP 242156Z 14011KT 10SM BKN055 BKN150 OVC250 14/04 A3026 RMK AO2 SLP249 T01390044
Pressure 30.27 in
Visibility 10.0 miles
Clouds Mostly Cloudy 5500 ft
Mostly Cloudy 15000 ft
Overcast 25000 ft
Dew Point 41 °F
Humidity 58%
Rainfall 0.00 in
Snow Depth Not available.
6:00 AM 7:41 PM
Waxing Gibbous, 72% visible
METAR KISP 242156Z 14011KT 10SM BKN055 BKN150 OVC250 14/04 A3026 RMK AO2 SLP249 T01390044

Get Severe Weather Alerts

Thanks for signing up!

Be on the lookout for a verification email in your inbox.

You'll start receiving the daily forecast at 6 AM.

×

10-Day Weather Forecast

Almanac

Astronomy

Apr. 24, 2018 Rise Set
Actual Time
Civil Twilight
Nautical Twilight
Astronomical Twilight
Moon
Length of Visible Light
Length of Day
Tomorrow will be .
, % of the Moon is Illuminated

Today's Extremes

State Highs State Lows

Community

WunderPhotos

Category 6

Welcome to Category 6. This is the collective home for Weather Underground's featured writeups by Dr. Jeff Masters (right), Bob Henson (left), Chris Burt, and other regular contributors.

Nearby

Air Quality

  Air Quality AQ Index Pollutant
Not available.

Snow Depth

Station Depth Elevation

Earthquake Activity

City Distance Mag. Time & Date
Minimum magnitude displayed is 2.5.

Coastal Water Temperatures

Place Temperature

Stations

Nearby Weather Stations

Station Location Temp. Windchill Dew Point Humidity Wind Precip. Elev Updated Type
                   

Watches & Warnings

There are currently no watches in effect.